createdAt,value
2018-12-18T17:36:47.841Z,1016.95
2018-12-18T17:37:49.248Z,1016.93
2018-12-18T17:38:50.638Z,1016.95
2018-12-18T17:39:52.022Z,1016.97
2018-12-18T17:40:53.425Z,1016.96
2018-12-18T17:41:54.820Z,1017.02
2018-12-18T17:42:56.206Z,1017.03
2018-12-18T17:43:57.593Z,1017.05
2018-12-18T17:44:59.002Z,1017.04
2018-12-18T17:46:00.410Z,1017.01
2018-12-18T17:47:01.808Z,1016.99
2018-12-18T17:48:03.214Z,1017.01
2018-12-18T17:49:04.636Z,1016.99
2018-12-18T17:50:06.058Z,1017.00
2018-12-18T17:51:07.467Z,1016.98
2018-12-18T17:52:09.770Z,1016.97
2018-12-18T17:53:11.167Z,1016.98
2018-12-18T17:54:12.579Z,1016.93
2018-12-18T17:55:14.008Z,1016.96
2018-12-18T17:56:15.410Z,1016.97
2018-12-18T17:57:16.808Z,1016.90
2018-12-18T17:58:18.215Z,1016.94
2018-12-18T17:59:19.607Z,1016.93
2018-12-18T18:00:21.015Z,1016.95
2018-12-18T18:01:22.409Z,1016.96
2018-12-18T18:02:23.801Z,1016.95
2018-12-18T18:03:25.205Z,1016.89
2018-12-18T18:04:26.623Z,1016.88
2018-12-18T18:05:28.021Z,1016.87
2018-12-18T18:06:29.411Z,1016.87
2018-12-18T18:07:30.845Z,1016.83
2018-12-18T18:08:32.248Z,1016.85
2018-12-18T18:09:33.642Z,1016.84
2018-12-18T18:10:35.044Z,1016.82
2018-12-18T18:11:36.452Z,1016.81
2018-12-18T18:12:37.865Z,1016.79
2018-12-18T18:13:39.262Z,1016.80
2018-12-18T18:14:40.667Z,1016.79
2018-12-18T18:15:42.079Z,1016.83
2018-12-18T18:16:43.470Z,1016.85
2018-12-18T18:17:44.877Z,1016.87
2018-12-18T18:18:46.279Z,1016.83
2018-12-18T18:19:47.710Z,1016.78
2018-12-18T18:20:49.107Z,1016.80
2018-12-18T18:21:50.504Z,1016.77
2018-12-18T18:22:51.919Z,1016.77
2018-12-18T18:23:53.333Z,1016.73
2018-12-18T18:24:54.727Z,1016.68
2018-12-18T18:25:56.129Z,1016.68
2018-12-18T18:26:57.533Z,1016.69
2018-12-18T18:27:58.918Z,1016.67
2018-12-18T18:29:00.322Z,1016.67
2018-12-18T18:30:01.713Z,1016.69
2018-12-18T18:31:03.144Z,1016.69
2018-12-18T18:32:04.545Z,1016.72
2018-12-18T18:33:05.955Z,1016.72
2018-12-18T18:34:07.356Z,1016.73
2018-12-18T18:35:08.780Z,1016.77
2018-12-18T18:36:10.162Z,1016.80
2018-12-18T18:37:11.602Z,1016.74
2018-12-18T18:38:13.008Z,1016.76
2018-12-18T18:39:15.292Z,1016.72
2018-12-18T18:40:15.750Z,1016.69
2018-12-18T18:41:17.138Z,1016.68
2018-12-18T18:42:18.534Z,1016.69
2018-12-18T18:43:19.929Z,1016.69
2018-12-18T18:44:21.330Z,1016.73
2018-12-18T18:45:22.726Z,1016.69
2018-12-18T18:46:24.140Z,1016.71
2018-12-18T18:47:25.537Z,1016.70
2018-12-18T18:48:26.941Z,1016.67
2018-12-18T18:49:28.345Z,1016.62
2018-12-18T18:50:29.756Z,1016.65
2018-12-18T18:51:31.145Z,1016.70
2018-12-18T18:52:32.548Z,1016.66
2018-12-18T18:53:33.948Z,1016.61
2018-12-18T18:54:35.339Z,1016.66
2018-12-18T18:55:36.741Z,1016.63
2018-12-18T18:56:38.150Z,1016.62
2018-12-18T18:57:39.549Z,1016.60
2018-12-18T18:58:40.943Z,1016.56
2018-12-18T18:59:42.352Z,1016.62
2018-12-18T19:00:43.759Z,1016.67
2018-12-18T19:01:45.173Z,1016.70
2018-12-18T19:02:46.570Z,1016.66
2018-12-18T19:03:47.964Z,1016.67
2018-12-18T19:04:49.356Z,1016.69
2018-12-18T19:05:50.765Z,1016.71
2018-12-18T19:06:52.180Z,1016.73
2018-12-18T19:07:56.487Z,1016.77
2018-12-18T19:08:54.941Z,1016.75
2018-12-18T19:09:56.352Z,1016.74
2018-12-18T19:10:57.767Z,1016.75
2018-12-18T19:11:59.173Z,1016.77
2018-12-18T19:13:00.578Z,1016.73
2018-12-18T19:14:02.732Z,1016.80
2018-12-18T19:15:04.144Z,1016.75
2018-12-18T19:16:05.578Z,1016.75
2018-12-18T19:17:06.998Z,1016.78
2018-12-18T19:18:08.913Z,1016.81
2018-12-18T19:19:10.329Z,1016.78
2018-12-18T19:20:11.739Z,1016.81
2018-12-18T19:21:13.119Z,1016.79
2018-12-18T19:22:14.513Z,1016.81
2018-12-18T19:23:15.887Z,1016.79
2018-12-18T19:24:17.271Z,1016.74
2018-12-18T19:25:18.658Z,1016.76
2018-12-18T19:26:20.034Z,1016.75
2018-12-18T19:27:21.433Z,1016.72
2018-12-18T19:28:22.812Z,1016.69
2018-12-18T19:29:24.199Z,1016.66
2018-12-18T19:30:25.582Z,1016.65
2018-12-18T19:31:26.975Z,1016.61
2018-12-18T19:32:28.360Z,1016.63
2018-12-18T19:33:29.737Z,1016.63
2018-12-18T19:34:32.919Z,1016.59
2018-12-18T19:35:34.306Z,1016.63
2018-12-18T19:36:37.187Z,1016.59
2018-12-18T19:37:38.575Z,1016.57
2018-12-18T19:38:39.958Z,1016.54
2018-12-18T19:39:41.357Z,1016.47
2018-12-18T19:40:42.763Z,1016.48
2018-12-18T19:41:44.183Z,1016.45
2018-12-18T19:42:45.581Z,1016.48
2018-12-18T19:43:46.989Z,1016.44
2018-12-18T19:44:48.362Z,1016.46
2018-12-18T19:45:49.761Z,1016.43
2018-12-18T19:46:51.159Z,1016.43
2018-12-18T19:47:52.573Z,1016.41
2018-12-18T19:48:53.976Z,1016.43
2018-12-18T19:49:55.359Z,1016.37
2018-12-18T19:50:56.749Z,1016.37
2018-12-18T19:51:58.149Z,1016.31
2018-12-18T19:53:00.415Z,1016.31
2018-12-18T19:54:01.791Z,1016.28
2018-12-18T19:55:03.186Z,1016.32
2018-12-18T19:56:05.458Z,1016.30
2018-12-18T19:57:06.838Z,1016.33
2018-12-18T19:58:08.257Z,1016.35
2018-12-18T19:59:10.876Z,1016.38
2018-12-18T20:00:10.986Z,1016.41
2018-12-18T20:01:12.381Z,1016.34
2018-12-18T20:02:13.760Z,1016.30
2018-12-18T20:03:15.963Z,1016.31
2018-12-18T20:04:17.342Z,1016.28
2018-12-18T20:05:18.734Z,1016.33
2018-12-18T20:06:21.040Z,1016.28
2018-12-18T20:07:21.446Z,1016.31
2018-12-18T20:08:22.847Z,1016.25
2018-12-18T20:09:24.222Z,1016.26
2018-12-18T20:10:25.616Z,1016.23
2018-12-18T20:11:27.027Z,1016.22
2018-12-18T20:12:28.412Z,1016.17
2018-12-18T20:13:29.823Z,1016.17
2018-12-18T20:14:31.221Z,1016.13
2018-12-18T20:15:32.631Z,1016.17
2018-12-18T20:16:34.041Z,1016.23
2018-12-18T20:17:35.445Z,1016.14
2018-12-18T20:18:36.832Z,1016.15
2018-12-18T20:19:39.180Z,1016.15
2018-12-18T20:20:40.554Z,1016.15
2018-12-18T20:21:41.935Z,1016.16
2018-12-18T20:22:43.347Z,1016.19
2018-12-18T20:23:44.743Z,1016.18
2018-12-18T20:24:46.966Z,1016.20
2018-12-18T20:25:48.376Z,1016.22
2018-12-18T20:26:49.765Z,1016.21
2018-12-18T20:27:51.159Z,1016.14
2018-12-18T20:28:52.586Z,1016.15
2018-12-18T20:29:54.762Z,1016.13
2018-12-18T20:30:56.144Z,1016.10
2018-12-18T20:31:57.544Z,1016.05
2018-12-18T20:32:58.933Z,1016.08
2018-12-18T20:34:01.804Z,1016.10
2018-12-18T20:35:03.208Z,1016.11
2018-12-18T20:36:04.604Z,1016.06
2018-12-18T20:37:05.986Z,1016.09
2018-12-18T20:38:07.370Z,1016.18
2018-12-18T20:39:08.747Z,1016.10
2018-12-18T20:40:10.123Z,1016.11
2018-12-18T20:41:12.803Z,1016.05
2018-12-18T20:42:16.336Z,1016.00
2018-12-18T20:43:20.042Z,1016.04
2018-12-18T20:44:24.439Z,1015.94
2018-12-18T20:45:29.284Z,1015.95
2018-12-18T20:46:32.731Z,1015.89
2018-12-18T20:47:34.148Z,1015.90
2018-12-18T20:48:35.529Z,1015.92
2018-12-18T20:49:41.123Z,1016.03
2018-12-18T20:50:45.525Z,1015.98
2018-12-18T20:51:48.850Z,1015.96
2018-12-18T20:52:52.913Z,1015.93
2018-12-18T20:53:54.311Z,1015.97
2018-12-18T20:54:57.459Z,1015.88
2018-12-18T20:56:01.613Z,1015.84
2018-12-18T20:57:04.737Z,1015.84
2018-12-18T20:58:09.651Z,1015.78
2018-12-18T20:59:13.342Z,1015.81
2018-12-18T21:00:17.467Z,1015.78
2018-12-18T21:01:24.090Z,1015.84
2018-12-18T21:02:28.967Z,1015.83
2018-12-18T21:03:33.122Z,1015.84
2018-12-18T21:04:37.952Z,1015.83
2018-12-18T21:05:44.095Z,1015.82
2018-12-18T21:06:45.671Z,1015.82
2018-12-18T21:07:49.638Z,1015.79
2018-12-18T21:08:53.767Z,1015.80
2018-12-18T21:09:58.480Z,1015.79
2018-12-18T21:11:03.859Z,1015.77
2018-12-18T21:12:05.543Z,1015.73
2018-12-18T21:13:10.496Z,1015.77
2018-12-18T21:14:16.293Z,1015.75
2018-12-18T21:15:20.994Z,1015.75
2018-12-18T21:16:25.546Z,1015.66
2018-12-18T21:17:28.946Z,1015.70
2018-12-18T21:18:32.396Z,1015.67
2018-12-18T21:19:38.954Z,1015.68
2018-12-18T21:20:43.107Z,1015.56
2018-12-18T21:21:44.486Z,1015.58
2018-12-18T21:22:49.717Z,1015.55
2018-12-18T21:23:54.764Z,1015.53
2018-12-18T21:24:56.138Z,1015.58
2018-12-18T21:25:57.555Z,1015.54
2018-12-18T21:26:59.093Z,1015.55
2018-12-18T21:28:00.476Z,1015.54
2018-12-18T21:29:01.868Z,1015.57
2018-12-18T21:30:03.334Z,1015.58
2018-12-18T21:31:04.713Z,1015.55
2018-12-18T21:32:06.095Z,1015.52
2018-12-18T21:33:07.477Z,1015.53
2018-12-18T21:34:11.082Z,1015.53
2018-12-18T21:35:15.175Z,1015.56
2018-12-18T21:36:22.876Z,1015.57
2018-12-18T21:37:33.451Z,1015.48
2018-12-18T21:38:37.655Z,1015.51
2018-12-18T21:39:42.288Z,1015.46
2018-12-18T21:40:45.177Z,1015.48
2018-12-18T21:41:47.140Z,1015.50
2018-12-18T21:42:48.534Z,1015.44
2018-12-18T21:43:54.820Z,1015.48
2018-12-18T21:45:02.417Z,1015.48
2018-12-18T21:46:12.497Z,1015.48
2018-12-18T21:47:22.850Z,1015.52
2018-12-18T21:48:33.212Z,1015.46
2018-12-18T21:49:43.614Z,1015.53
2018-12-18T21:50:46.497Z,1015.48
2018-12-18T21:51:49.613Z,1015.50
2018-12-18T21:52:52.649Z,1015.49
2018-12-18T21:53:55.532Z,1015.44
2018-12-18T21:55:00.175Z,1015.48
2018-12-18T21:56:04.577Z,1015.44
2018-12-18T21:57:06.839Z,1015.43
2018-12-18T21:58:08.843Z,1015.41
2018-12-18T21:59:12.052Z,1015.40
2018-12-18T22:00:13.429Z,1015.34
2018-12-18T22:01:16.853Z,1015.37
2018-12-18T22:02:18.229Z,1015.36
2018-12-18T22:03:19.610Z,1015.39
2018-12-18T22:04:22.869Z,1015.40
2018-12-18T22:05:24.245Z,1015.41
2018-12-18T22:06:25.626Z,1015.45
2018-12-18T22:07:28.072Z,1015.44
2018-12-18T22:08:36.823Z,1015.39
2018-12-18T22:09:36.170Z,1015.40
2018-12-18T22:10:40.190Z,1015.36
2018-12-18T22:11:44.053Z,1015.38
2018-12-18T22:12:48.550Z,1015.33
2018-12-18T22:13:52.370Z,1015.31
2018-12-18T22:14:56.288Z,1015.31
2018-12-18T22:16:00.334Z,1015.31
2018-12-18T22:17:04.686Z,1015.29
2018-12-18T22:18:06.063Z,1015.26
2018-12-18T22:19:11.762Z,1015.25
2018-12-18T22:20:16.194Z,1015.22
2018-12-18T22:21:17.529Z,1015.16
2018-12-18T22:22:18.917Z,1015.18
2018-12-18T22:23:20.500Z,1015.18
2018-12-18T22:24:21.893Z,1015.16
2018-12-18T22:25:25.757Z,1015.12
2018-12-18T22:26:27.083Z,1015.12
2018-12-18T22:27:28.455Z,1015.06
2018-12-18T22:28:29.928Z,1015.10
2018-12-18T22:29:31.312Z,1015.09
2018-12-18T22:30:32.692Z,1015.10
2018-12-18T22:31:34.208Z,1015.02
2018-12-18T22:32:35.587Z,1015.04
2018-12-18T22:33:36.963Z,1015.02
2018-12-18T22:34:38.393Z,1015.09
2018-12-18T22:35:39.766Z,1015.08
2018-12-18T22:36:41.285Z,1015.03
2018-12-18T22:37:42.627Z,1014.96
2018-12-18T22:38:44.028Z,1014.97
2018-12-18T22:39:45.406Z,1014.93
2018-12-18T22:40:46.784Z,1014.87
2018-12-18T22:41:48.159Z,1014.94
2018-12-18T22:42:49.534Z,1014.89
2018-12-18T22:43:50.909Z,1014.92
2018-12-18T22:44:52.285Z,1014.90
2018-12-18T22:45:53.658Z,1014.84
2018-12-18T22:46:55.044Z,1014.79
2018-12-18T22:47:56.437Z,1014.79
2018-12-18T22:48:58.036Z,1014.77
2018-12-18T22:50:01.074Z,1014.80
2018-12-18T22:51:05.832Z,1014.80
2018-12-18T22:52:12.969Z,1014.76
2018-12-18T22:53:14.455Z,1014.69
2018-12-18T22:54:15.842Z,1014.77
2018-12-18T22:55:19.626Z,1014.75
2018-12-18T22:56:21.010Z,1014.69
2018-12-18T22:57:22.389Z,1014.69
2018-12-18T22:58:23.765Z,1014.67
